createdAt,value
2022-10-01T00:02:10.872Z,99984.77
2022-10-01T00:04:39.700Z,99980.61
2022-10-01T00:07:11.118Z,99980.22
2022-10-01T00:09:39.509Z,99981.18
2022-10-01T00:12:07.989Z,99987.85
2022-10-01T00:14:39.159Z,99987.89
2022-10-01T00:17:07.693Z,99986.88
2022-10-01T00:19:36.040Z,99984.92
2022-10-01T00:22:04.347Z,99984.77
2022-10-01T00:24:32.767Z,99988.52
2022-10-01T00:27:01.058Z,99986.41
2022-10-01T00:29:31.869Z,99985.27
2022-10-01T00:32:00.461Z,99980.88
2022-10-01T00:34:28.925Z,99982.66
2022-10-01T00:36:57.243Z,99978.17
2022-10-01T00:39:25.602Z,99977.58
2022-10-01T00:41:54.689Z,99977.53
2022-10-01T00:44:38.433Z,99978.70
2022-10-01T00:47:31.704Z,99977.95
2022-10-01T00:50:09.998Z,99981.96
2022-10-01T00:52:41.830Z,99987.88
2022-10-01T00:55:15.894Z,99986.37
2022-10-01T00:57:45.601Z,99983.43
2022-10-01T01:00:14.891Z,99985.08
2022-10-01T01:02:43.792Z,99984.92
2022-10-01T01:05:13.974Z,99981.89
2022-10-01T01:07:48.545Z,99980.06
2022-10-01T01:10:29.917Z,99976.05
2022-10-01T01:13:11.939Z,99976.20
2022-10-01T01:15:58.945Z,99972.34
2022-10-01T01:19:00.798Z,99976.30
2022-10-01T01:21:56.715Z,99970.23
2022-10-01T01:24:46.544Z,99973.14
2022-10-01T01:27:33.409Z,99965.66
2022-10-01T01:30:08.649Z,99969.40
2022-10-01T01:33:04.740Z,99964.65
2022-10-01T01:35:44.866Z,99963.84
2022-10-01T01:38:28.075Z,99960.59
2022-10-01T01:41:02.202Z,99962.21
2022-10-01T01:43:35.688Z,99959.23
2022-10-01T01:46:08.882Z,99960.09
2022-10-01T01:48:41.791Z,99962.87
2022-10-01T01:51:34.184Z,99959.86
2022-10-01T01:54:03.285Z,99959.54
2022-10-01T01:56:32.320Z,99957.33
2022-10-01T01:59:01.483Z,99956.30
2022-10-01T02:01:44.258Z,99954.99
2022-10-01T02:04:24.504Z,99959.89
2022-10-01T02:07:11.156Z,99959.80
2022-10-01T02:09:59.698Z,99960.59
2022-10-01T02:13:01.596Z,99960.41
2022-10-01T02:15:44.945Z,99956.48
2022-10-01T02:18:47.807Z,99950.44
2022-10-01T02:22:11.029Z,99942.95
2022-10-01T02:24:50.907Z,99938.02
2022-10-01T02:27:53.441Z,99937.96
2022-10-01T02:30:22.099Z,99934.09
2022-10-01T02:32:52.652Z,99932.89
2022-10-01T02:35:22.028Z,99932.95
2022-10-01T02:37:56.304Z,99926.85
2022-10-01T02:40:28.329Z,99925.38
2022-10-01T02:43:04.570Z,99919.44
2022-10-01T02:45:37.885Z,99914.96
2022-10-01T02:48:11.091Z,99913.57
2022-10-01T02:50:57.194Z,99911.96
2022-10-01T02:53:36.003Z,99913.01
2022-10-01T02:56:07.092Z,99912.52
2022-10-01T02:58:36.423Z,99907.52
2022-10-01T03:01:05.409Z,99907.20
2022-10-01T03:03:33.764Z,99910.74
2022-10-01T03:06:02.094Z,99905.11
2022-10-01T03:08:31.594Z,99905.33
2022-10-01T03:11:01.098Z,99908.37
2022-10-01T03:13:29.503Z,99911.59
2022-10-01T03:15:57.863Z,99906.48
2022-10-01T03:18:26.428Z,99904.38
2022-10-01T03:20:54.773Z,99903.63
2022-10-01T03:23:23.320Z,99903.49
2022-10-01T03:25:51.692Z,99900.18
2022-10-01T03:28:20.093Z,99895.84
2022-10-01T03:30:48.521Z,99899.18
2022-10-01T03:33:16.930Z,99897.78
2022-10-01T03:35:45.215Z,99895.46
2022-10-01T03:38:13.871Z,99894.54
2022-10-01T03:40:42.198Z,99891.36
2022-10-01T03:43:10.535Z,99898.10
2022-10-01T03:45:39.578Z,99896.56
2022-10-01T03:48:07.962Z,99895.04
2022-10-01T03:50:36.744Z,99896.64
2022-10-01T03:53:06.556Z,99892.80
2022-10-01T03:55:34.881Z,99896.16
2022-10-01T03:58:03.657Z,99894.64
2022-10-01T04:00:31.951Z,99893.58
2022-10-01T04:03:00.360Z,99897.91
2022-10-01T04:05:29.002Z,99894.66
2022-10-01T04:07:59.692Z,99892.15
2022-10-01T04:10:28.089Z,99890.86
2022-10-01T04:12:56.873Z,99893.25
2022-10-01T04:15:25.662Z,99890.52
2022-10-01T04:17:55.031Z,99885.30
2022-10-01T04:20:23.593Z,99879.92
2022-10-01T04:22:53.183Z,99881.17
2022-10-01T04:25:21.655Z,99876.91
2022-10-01T04:28:02.035Z,99873.54
2022-10-01T04:30:35.067Z,99876.41
2022-10-01T04:33:04.720Z,99876.52
2022-10-01T04:35:34.086Z,99879.95
2022-10-01T04:38:06.343Z,99879.20
2022-10-01T04:40:36.750Z,99875.77
2022-10-01T04:43:09.648Z,99878.00
2022-10-01T04:45:38.442Z,99877.09
2022-10-01T04:48:06.844Z,99879.39
2022-10-01T04:50:35.185Z,99881.37
2022-10-01T04:53:03.558Z,99880.23
2022-10-01T04:55:31.922Z,99878.42
2022-10-01T04:58:00.256Z,99880.88
2022-10-01T05:00:30.049Z,99881.74
2022-10-01T05:02:58.514Z,99878.10
2022-10-01T05:05:29.168Z,99881.75
2022-10-01T05:07:57.599Z,99882.08
2022-10-01T05:10:26.291Z,99878.45
2022-10-01T05:15:36.962Z,99878.92
2022-10-01T05:18:05.287Z,99875.48
2022-10-01T05:20:34.430Z,99876.98
2022-10-01T05:23:02.709Z,99872.61
2022-10-01T05:25:30.992Z,99867.98
2022-10-01T05:28:05.997Z,99874.17
2022-10-01T05:30:35.135Z,99873.70
2022-10-01T05:33:05.052Z,99881.16
2022-10-01T05:35:33.499Z,99873.88
2022-10-01T05:38:03.068Z,99877.82
2022-10-01T05:40:31.649Z,99875.53
2022-10-01T05:43:00.434Z,99871.96
2022-10-01T05:45:31.884Z,99868.58
2022-10-01T05:48:03.652Z,99865.20
2022-10-01T05:50:35.829Z,99863.04
2022-10-01T05:53:04.392Z,99861.26
2022-10-01T05:55:36.923Z,99862.09
2022-10-01T05:58:11.370Z,99862.48
2022-10-01T06:00:42.022Z,99860.11
2022-10-01T06:03:15.294Z,99855.30
2022-10-01T06:05:44.651Z,99856.38
2022-10-01T06:08:13.240Z,99854.67
2022-10-01T06:10:41.929Z,99851.59
2022-10-01T06:13:10.568Z,99856.98
2022-10-01T06:15:39.171Z,99859.64
2022-10-01T06:18:10.474Z,99858.10
2022-10-01T06:20:40.975Z,99856.73
2022-10-01T06:23:12.584Z,99853.52
2022-10-01T06:25:43.544Z,99854.24
2022-10-01T06:28:14.898Z,99859.34
2022-10-01T06:30:43.729Z,99859.04
2022-10-01T06:33:15.535Z,99858.99
2022-10-01T06:35:49.836Z,99852.48
2022-10-01T06:38:21.318Z,99852.83
2022-10-01T06:40:55.287Z,99848.87
2022-10-01T06:43:25.547Z,99849.48
2022-10-01T06:45:54.827Z,99848.55
2022-10-01T06:48:23.674Z,99849.02
2022-10-01T06:50:53.146Z,99845.96
2022-10-01T06:53:21.540Z,99849.33
2022-10-01T06:55:50.098Z,99849.82
2022-10-01T06:58:27.651Z,99851.30
2022-10-01T07:01:03.844Z,99853.09
2022-10-01T07:03:32.354Z,99856.21
2022-10-01T07:06:04.124Z,99849.98
2022-10-01T07:08:33.490Z,99846.50
2022-10-01T07:11:03.110Z,99837.86
2022-10-01T07:13:31.827Z,99831.21
2022-10-01T07:16:04.377Z,99828.84
2022-10-01T07:18:33.305Z,99827.64
2022-10-01T07:21:01.951Z,99824.17
2022-10-01T07:23:30.455Z,99822.02
2022-10-01T07:25:59.104Z,99814.38
2022-10-01T07:28:28.300Z,99814.27
2022-10-01T07:31:07.274Z,99813.08
2022-10-01T07:33:35.965Z,99810.80
2022-10-01T07:36:08.505Z,99810.55
2022-10-01T07:38:36.935Z,99806.26
2022-10-01T07:41:06.005Z,99800.92
2022-10-01T07:43:36.458Z,99796.65
2022-10-01T07:46:07.307Z,99794.90
2022-10-01T07:48:35.973Z,99793.45
2022-10-01T07:51:04.527Z,99788.73
2022-10-01T07:53:32.874Z,99791.52
2022-10-01T07:56:02.965Z,99788.77
2022-10-01T07:58:31.427Z,99790.75
2022-10-01T08:01:04.464Z,99794.48
2022-10-01T08:03:32.832Z,99791.03
2022-10-01T08:06:04.121Z,99796.86
2022-10-01T08:08:33.523Z,99792.55
2022-10-01T08:11:07.234Z,99789.64
2022-10-01T08:13:36.013Z,99790.49
2022-10-01T08:16:06.228Z,99787.25
2022-10-01T08:18:35.131Z,99784.89
2022-10-01T08:21:04.571Z,99786.39
2022-10-01T08:23:33.903Z,99786.14
2022-10-01T08:26:07.649Z,99783.21
2022-10-01T08:28:36.180Z,99777.83
2022-10-01T08:31:10.047Z,99773.01
2022-10-01T08:33:38.824Z,99772.13
2022-10-01T08:36:08.648Z,99764.14
2022-10-01T08:38:40.728Z,99762.11
2022-10-01T08:41:49.581Z,99762.79
2022-10-01T08:44:28.223Z,99751.98
2022-10-01T08:47:13.995Z,99748.95
2022-10-01T08:49:56.348Z,99746.27
2022-10-01T08:52:37.014Z,99742.50
2022-10-01T08:55:21.285Z,99738.87
2022-10-01T08:58:04.204Z,99736.26
2022-10-01T09:00:38.852Z,99728.02
2022-10-01T09:03:12.955Z,99728.71
2022-10-01T09:05:59.624Z,99722.50
2022-10-01T09:09:24.826Z,99716.25
2022-10-01T09:12:31.509Z,99713.16
2022-10-01T09:15:40.132Z,99703.09
2022-10-01T09:18:46.915Z,99691.43
2022-10-01T09:21:27.188Z,99686.56
2022-10-01T09:24:10.332Z,99686.00
2022-10-01T09:26:45.087Z,99684.08
2022-10-01T09:29:23.052Z,99684.10
2022-10-01T09:31:53.826Z,99686.67
2022-10-01T09:34:40.106Z,99683.79
2022-10-01T09:37:15.181Z,99678.28
2022-10-01T09:40:00.612Z,99672.74
2022-10-01T09:42:30.341Z,99670.21
2022-10-01T09:44:59.328Z,99665.55
2022-10-01T09:47:28.143Z,99659.53
2022-10-01T09:50:00.313Z,99658.41
2022-10-01T09:52:39.219Z,99654.37
2022-10-01T09:55:46.079Z,99653.75
2022-10-01T09:58:23.122Z,99653.88
2022-10-01T10:00:53.741Z,99650.86
2022-10-01T10:03:25.441Z,99649.20
2022-10-01T10:05:55.029Z,99644.76
2022-10-01T10:08:40.456Z,99640.55
2022-10-01T10:11:10.562Z,99635.27
2022-10-01T10:13:51.046Z,99631.64
2022-10-01T10:16:35.330Z,99633.15
2022-10-01T10:19:15.157Z,99628.19
2022-10-01T10:21:53.209Z,99626.31
2022-10-01T10:24:32.837Z,99624.66
2022-10-01T10:27:06.996Z,99617.36
2022-10-01T10:29:37.581Z,99610.09
2022-10-01T10:32:27.656Z,99610.15
2022-10-01T10:35:04.922Z,99607.05
2022-10-01T10:37:38.460Z,99605.45
2022-10-01T10:40:10.775Z,99605.55
2022-10-01T10:42:48.011Z,99598.38
2022-10-01T10:45:21.364Z,99592.58
2022-10-01T10:47:52.938Z,99594.77
2022-10-01T10:50:33.914Z,99592.53
2022-10-01T10:53:24.350Z,99588.55
2022-10-01T10:56:06.471Z,99578.92
2022-10-01T10:58:42.502Z,99573.09
2022-10-01T11:01:18.038Z,99562.71
2022-10-01T11:03:57.697Z,99563.60
2022-10-01T11:06:26.562Z,99556.45
2022-10-01T11:09:07.386Z,99550.08
2022-10-01T11:12:00.176Z,99541.84
2022-10-01T11:15:08.077Z,99539.31
2022-10-01T11:18:17.413Z,99538.89
2022-10-01T11:21:04.223Z,99537.48
2022-10-01T11:24:10.444Z,99535.67
2022-10-01T11:26:58.699Z,99536.36
2022-10-01T11:29:47.775Z,99536.25
2022-10-01T11:32:19.726Z,99526.54
2022-10-01T11:35:22.271Z,99527.04
2022-10-01T11:38:06.711Z,99530.15
2022-10-01T11:40:54.735Z,99530.94
2022-10-01T11:43:41.202Z,99530.11
2022-10-01T11:46:25.315Z,99528.38
2022-10-01T11:49:46.663Z,99530.02
2022-10-01T11:52:23.584Z,99521.27
2022-10-01T11:55:21.504Z,99520.33
2022-10-01T11:58:17.209Z,99521.88
2022-10-01T12:01:15.309Z,99522.48
2022-10-01T12:03:52.227Z,99527.84
2022-10-01T12:06:33.722Z,99525.89
2022-10-01T12:09:17.678Z,99514.95
2022-10-01T12:11:54.092Z,99505.96
2022-10-01T12:14:44.488Z,99509.52
2022-10-01T12:17:25.873Z,99509.66
2022-10-01T12:19:59.827Z,99506.36
2022-10-01T12:22:41.090Z,99504.39
2022-10-01T12:25:13.365Z,99499.61
2022-10-01T12:28:24.094Z,99493.79
2022-10-01T12:31:13.096Z,99488.03
2022-10-01T12:33:59.696Z,99484.09
2022-10-01T12:36:50.056Z,99487.04
2022-10-01T12:39:43.163Z,99482.88
2022-10-01T12:42:32.007Z,99470.71
2022-10-01T12:45:00.216Z,99468.56
2022-10-01T12:47:43.060Z,99462.48
2022-10-01T12:50:47.285Z,99459.80
2022-10-01T12:54:15.467Z,99459.84
2022-10-01T12:57:00.520Z,99460.11
2022-10-01T12:59:51.670Z,99457.91
2022-10-01T13:02:57.363Z,99459.94
2022-10-01T13:06:01.421Z,99454.64
2022-10-01T13:09:03.443Z,99448.39
2022-10-01T13:12:18.067Z,99451.08
2022-10-01T13:14:47.613Z,99442.19
2022-10-01T13:17:39.806Z,99440.91
2022-10-01T13:20:29.104Z,99438.61
2022-10-01T13:23:31.522Z,99439.35
2022-10-01T13:26:27.346Z,99444.11
2022-10-01T13:29:07.320Z,99445.83
2022-10-01T13:31:53.082Z,99440.02
2022-10-01T13:34:39.653Z,99436.96
2022-10-01T13:37:16.510Z,99436.31
2022-10-01T13:39:46.898Z,99438.91
2022-10-01T13:42:29.895Z,99433.05
2022-10-01T13:45:04.791Z,99437.10
2022-10-01T13:47:41.247Z,99434.61
2022-10-01T13:50:24.000Z,99428.17
2022-10-01T13:53:25.474Z,99421.38
2022-10-01T13:55:56.852Z,99416.63
2022-10-01T13:58:45.929Z,99410.67
2022-10-01T14:01:22.877Z,99407.86
2022-10-01T14:04:05.220Z,99407.81
2022-10-01T14:06:36.925Z,99405.41
2022-10-01T14:09:13.496Z,99404.35
2022-10-01T14:12:06.833Z,99401.25
2022-10-01T14:14:56.642Z,99400.37
2022-10-01T14:17:33.503Z,99390.08
2022-10-01T14:20:03.037Z,99385.38
2022-10-01T14:22:41.804Z,99381.48
2022-10-01T14:25:23.189Z,99384.48
2022-10-01T14:28:23.142Z,99380.94
2022-10-01T14:31:45.542Z,99378.55
2022-10-01T14:34:42.353Z,99371.52
2022-10-01T14:37:17.463Z,99367.32
2022-10-01T14:39:46.633Z,99366.16
2022-10-01T14:42:18.578Z,99360.15
2022-10-01T14:44:47.489Z,99356.29
2022-10-01T14:47:22.754Z,99356.67
2022-10-01T14:49:51.970Z,99358.33
2022-10-01T14:52:28.271Z,99355.14
2022-10-01T14:54:56.448Z,99350.91
2022-10-01T14:57:39.559Z,99346.84
2022-10-01T15:00:16.021Z,99346.04
2022-10-01T15:03:15.606Z,99350.54
2022-10-01T15:05:47.130Z,99358.91
2022-10-01T15:08:41.330Z,99379.02
2022-10-01T15:11:27.587Z,99410.90
2022-10-01T15:14:06.397Z,99432.78
2022-10-01T15:16:36.478Z,99423.69
2022-10-01T15:19:15.834Z,99411.66
2022-10-01T15:21:57.598Z,99408.53
2022-10-01T15:24:49.395Z,99409.89
2022-10-01T15:27:20.763Z,99412.50
2022-10-01T15:29:56.922Z,99416.93
2022-10-01T15:32:28.157Z,99418.82
2022-10-01T15:35:01.411Z,99416.33
2022-10-01T15:37:33.633Z,99416.27
2022-10-01T15:40:06.011Z,99416.77
2022-10-01T15:42:36.025Z,99427.89
2022-10-01T15:45:07.251Z,99422.64
2022-10-01T15:47:41.364Z,99419.31
2022-10-01T15:50:09.546Z,99422.35
2022-10-01T15:53:02.319Z,99418.54
2022-10-01T15:55:43.908Z,99411.48
2022-10-01T15:58:31.729Z,99415.19
2022-10-01T16:01:06.618Z,99417.04
2022-10-01T16:03:48.313Z,99411.44
2022-10-01T16:06:29.592Z,99404.36
2022-10-01T16:09:20.653Z,99406.67
2022-10-01T16:11:53.562Z,99404.75
2022-10-01T16:14:27.983Z,99406.54
2022-10-01T16:17:18.060Z,99403.25
2022-10-01T16:19:52.942Z,99401.02
2022-10-01T16:22:29.119Z,99400.63
2022-10-01T16:25:03.782Z,99400.13
2022-10-01T16:27:50.608Z,99398.94
2022-10-01T16:30:26.950Z,99393.25
2022-10-01T16:32:59.311Z,99392.10
2022-10-01T16:35:32.684Z,99393.13
2022-10-01T16:38:01.529Z,99395.51
2022-10-01T16:40:33.174Z,99395.29
2022-10-01T16:43:03.204Z,99395.40
2022-10-01T16:45:40.556Z,99394.73
2022-10-01T16:48:19.685Z,99395.41
2022-10-01T16:50:48.824Z,99396.02
2022-10-01T16:53:18.915Z,99396.14
2022-10-01T16:55:47.392Z,99397.27
2022-10-01T16:58:16.022Z,99399.52
2022-10-01T17:00:44.576Z,99402.73
2022-10-01T17:03:18.370Z,99400.51
2022-10-01T17:05:47.637Z,99399.67
2022-10-01T17:08:16.484Z,99397.02
2022-10-01T17:10:48.485Z,99399.41
2022-10-01T17:13:17.052Z,99407.40
2022-10-01T17:15:47.602Z,99408.98
2022-10-01T17:18:16.441Z,99395.70
2022-10-01T17:20:46.803Z,99394.40
2022-10-01T17:23:19.388Z,99398.50
2022-10-01T17:25:48.091Z,99402.83
2022-10-01T17:28:20.403Z,99400.67
2022-10-01T17:30:49.841Z,99402.23
2022-10-01T17:33:19.892Z,99400.76
2022-10-01T17:35:55.645Z,99406.81
2022-10-01T17:38:24.051Z,99406.69
2022-10-01T17:40:56.419Z,99411.69
2022-10-01T17:43:25.940Z,99412.30
2022-10-01T17:46:01.336Z,99408.83
2022-10-01T17:48:30.287Z,99408.98
2022-10-01T17:51:11.117Z,99413.99
2022-10-01T17:53:42.590Z,99414.16
2022-10-01T17:56:17.737Z,99410.38
2022-10-01T17:58:46.557Z,99412.48
2022-10-01T18:01:20.348Z,99417.91
2022-10-01T18:03:57.737Z,99420.51
2022-10-01T18:06:27.634Z,99420.45
2022-10-01T18:08:56.863Z,99424.75
2022-10-01T18:11:28.959Z,99428.20
2022-10-01T18:13:58.598Z,99427.80
2022-10-01T18:16:27.648Z,99421.69
2022-10-01T18:21:51.149Z,99425.66
2022-10-01T18:24:19.883Z,99426.66
2022-10-01T18:26:48.327Z,99427.67
2022-10-01T18:29:24.788Z,99425.44
2022-10-01T18:32:12.953Z,99429.25
2022-10-01T18:35:00.006Z,99435.38
2022-10-01T18:37:40.201Z,99435.46
2022-10-01T18:40:36.807Z,99440.12
2022-10-01T18:43:11.263Z,99446.14
2022-10-01T18:46:28.920Z,99449.89
2022-10-01T18:49:19.074Z,99452.02
2022-10-01T18:52:21.132Z,99450.19
2022-10-01T18:55:25.343Z,99443.76
2022-10-01T18:58:20.977Z,99440.94
2022-10-01T19:01:16.981Z,99447.31
2022-10-01T19:04:17.534Z,99445.49
2022-10-01T19:07:12.983Z,99445.63
2022-10-01T19:10:01.838Z,99443.42
2022-10-01T19:12:48.592Z,99444.11
2022-10-01T19:15:36.986Z,99436.77
2022-10-01T19:18:36.866Z,99435.98
2022-10-01T19:21:39.936Z,99438.39
2022-10-01T19:24:31.416Z,99442.64
2022-10-01T19:27:39.116Z,99439.38
2022-10-01T19:30:17.867Z,99444.67
2022-10-01T19:32:56.549Z,99448.27
2022-10-01T19:35:32.289Z,99447.07
2022-10-01T19:38:11.248Z,99451.21
2022-10-01T19:40:48.440Z,99456.00
2022-10-01T19:43:40.613Z,99454.02
2022-10-01T19:46:29.503Z,99454.71
2022-10-01T19:49:09.929Z,99449.64
2022-10-01T19:51:57.185Z,99453.90
2022-10-01T19:54:38.856Z,99460.50
2022-10-01T19:57:31.771Z,99460.30
2022-10-01T20:00:09.741Z,99454.14
2022-10-01T20:03:19.011Z,99456.39
2022-10-01T20:05:56.575Z,99460.98
2022-10-01T20:08:36.310Z,99461.33
2022-10-01T20:11:14.114Z,99460.67
2022-10-01T20:14:12.260Z,99462.67
2022-10-01T20:16:49.038Z,99465.07
2022-10-01T20:19:42.801Z,99460.33
2022-10-01T20:22:40.420Z,99465.52
2022-10-01T20:26:07.024Z,99465.11
2022-10-01T20:29:20.326Z,99465.66
2022-10-01T20:32:15.694Z,99462.59
2022-10-01T20:35:21.694Z,99470.71
2022-10-01T20:38:13.226Z,99470.21
2022-10-01T20:40:52.608Z,99471.73
2022-10-01T20:43:49.406Z,99476.48
2022-10-01T20:46:39.007Z,99479.79
2022-10-01T20:49:31.983Z,99482.48
2022-10-01T20:52:37.962Z,99482.02
2022-10-01T20:55:18.475Z,99483.17
2022-10-01T20:58:03.523Z,99484.16
2022-10-01T21:00:32.718Z,99484.28
2022-10-01T21:03:30.125Z,99484.95
2022-10-01T21:06:29.359Z,99483.12
2022-10-01T21:09:20.864Z,99485.68
2022-10-01T21:12:03.409Z,99483.66
2022-10-01T21:14:45.181Z,99487.45
2022-10-01T21:17:27.645Z,99490.10
2022-10-01T21:20:21.048Z,99489.86
2022-10-01T21:23:03.272Z,99494.95
2022-10-01T21:26:08.332Z,99496.47
2022-10-01T21:29:22.150Z,99498.02
2022-10-01T21:32:16.753Z,99499.87
2022-10-01T21:34:54.040Z,99503.96
2022-10-01T21:37:33.494Z,99510.02
2022-10-01T21:40:37.009Z,99512.70
2022-10-01T21:43:10.263Z,99518.48
2022-10-01T21:46:17.612Z,99518.94
2022-10-01T21:48:55.767Z,99517.48
2022-10-01T21:51:59.548Z,99520.89
2022-10-01T21:55:12.410Z,99527.03
2022-10-01T21:58:16.240Z,99529.27
2022-10-01T22:01:00.630Z,99529.17
2022-10-01T22:03:46.366Z,99529.65
2022-10-01T22:06:36.218Z,99528.10
2022-10-01T22:09:25.841Z,99530.55
2022-10-01T22:11:58.850Z,99531.39
2022-10-01T22:14:28.717Z,99536.60
2022-10-01T22:17:05.816Z,99536.88
2022-10-01T22:19:42.903Z,99545.89
2022-10-01T22:22:28.969Z,99546.41
2022-10-01T22:25:00.208Z,99553.41
2022-10-01T22:27:37.786Z,99557.77
2022-10-01T22:30:17.742Z,99554.16
2022-10-01T22:33:04.728Z,99553.73
2022-10-01T22:35:48.906Z,99559.14
2022-10-01T22:38:29.121Z,99557.17
2022-10-01T22:41:10.324Z,99560.07
2022-10-01T22:43:40.494Z,99560.67
2022-10-01T22:46:36.639Z,99560.34
2022-10-01T22:49:48.453Z,99571.02
2022-10-01T22:52:39.353Z,99569.80
2022-10-01T22:55:53.401Z,99573.63
2022-10-01T22:59:10.510Z,99577.36
2022-10-01T23:02:01.715Z,99577.70
2022-10-01T23:05:25.826Z,99578.51
2022-10-01T23:08:27.469Z,99584.23
2022-10-01T23:11:17.048Z,99587.20
2022-10-01T23:14:26.006Z,99594.33
2022-10-01T23:17:18.101Z,99599.44
2022-10-01T23:20:32.927Z,99599.16
2022-10-01T23:23:35.365Z,99607.27
2022-10-01T23:26:36.293Z,99615.14
2022-10-01T23:29:48.293Z,99619.48
2022-10-01T23:33:05.338Z,99625.26
2022-10-01T23:36:22.849Z,99632.97
2022-10-01T23:39:36.958Z,99636.77
2022-10-01T23:42:35.820Z,99640.96
2022-10-01T23:45:23.964Z,99643.59
2022-10-01T23:48:15.743Z,99660.63
2022-10-01T23:51:17.429Z,99658.58
2022-10-01T23:54:11.391Z,99665.57
2022-10-01T23:56:54.956Z,99671.45
2022-10-01T23:59:47.607Z,99677.66
